WIF2MY ENBR-EGPD
Flight info
| Callsign | WIF2MY |
|---|---|
| Flight time | 1h 14m |
| Altitude | 24000 |
| Route | EPOTU DCT BEREP DCT ADN |
| Aircraft | DH8D/M-SDE2E3FGRY/H |
Departure
| Time | 2026-05-07 15:44 |
|---|---|
| Airport | Bergen Airport, Flesland (ENBR) |
Arrival
| Time | 2026-05-07 16:58 |
|---|---|
| Airport | Aberdeen International Airport (EGPD) |
| Time | Latitude | Longitude | Altitude | Speed | Heading |
|---|---|---|---|---|---|
| 2026-05-07 15:27 | 60.29080 | 5.22875 | 180 ft | 0 kts | 45° |
| 2026-05-07 15:38 | 60.29079 | 5.22875 | 180 ft | 0 kts | 45° |
| 2026-05-07 15:38 | 60.29062 | 5.22838 | 179 ft | 0 kts | 41° |
| 2026-05-07 15:38 | 60.29073 | 5.22843 | 179 ft | 3 kts | 327° |
| 2026-05-07 15:38 | 60.29057 | 5.22747 | 178 ft | 8 kts | 246° |
| 2026-05-07 15:39 | 60.29044 | 5.22626 | 175 ft | 9 kts | 260° |
| 2026-05-07 15:39 | 60.29033 | 5.22501 | 173 ft | 9 kts | 260° |
| 2026-05-07 15:39 | 60.29030 | 5.22376 | 170 ft | 8 kts | 303° |
| 2026-05-07 15:39 | 60.29083 | 5.22340 | 170 ft | 4 kts | 318° |
| 2026-05-07 15:40 | 60.29076 | 5.22261 | 167 ft | 7 kts | 282° |
| 2026-05-07 15:40 | 60.29125 | 5.22208 | 165 ft | 9 kts | 350° |
| 2026-05-07 15:40 | 60.29233 | 5.22171 | 162 ft | 18 kts | 351° |
| 2026-05-07 15:40 | 60.29357 | 5.22130 | 158 ft | 17 kts | 350° |
| 2026-05-07 15:41 | 60.29475 | 5.22091 | 155 ft | 16 kts | 350° |
| 2026-05-07 15:41 | 60.29590 | 5.22049 | 152 ft | 16 kts | 349° |
| 2026-05-07 15:41 | 60.29697 | 5.22014 | 150 ft | 14 kts | 352° |
| 2026-05-07 15:41 | 60.29797 | 5.21982 | 152 ft | 16 kts | 350° |
| 2026-05-07 15:42 | 60.29913 | 5.21943 | 153 ft | 16 kts | 350° |
| 2026-05-07 15:42 | 60.30018 | 5.21906 | 154 ft | 12 kts | 339° |
| 2026-05-07 15:42 | 60.30043 | 5.21775 | 155 ft | 9 kts | 260° |
| 2026-05-07 15:42 | 60.30033 | 5.21660 | 154 ft | 7 kts | 260° |
| 2026-05-07 15:43 | 60.30014 | 5.21587 | 152 ft | 0 kts | 169° |
| 2026-05-07 15:43 | 60.29911 | 5.21620 | 149 ft | 53 kts | 170° |
| 2026-05-07 15:43 | 60.29264 | 5.21841 | 157 ft | 130 kts | 169° |
| 2026-05-07 15:43 | 60.28283 | 5.22188 | 441 ft | 151 kts | 172° |
| 2026-05-07 15:44 | 60.27236 | 5.22581 | 1046 ft | 159 kts | 169° |
| 2026-05-07 15:44 | 60.26146 | 5.22952 | 1740 ft | 164 kts | 171° |
| 2026-05-07 15:44 | 60.25016 | 5.23276 | 2474 ft | 166 kts | 171° |
| 2026-05-07 15:44 | 60.23878 | 5.23612 | 3227 ft | 168 kts | 170° |
| 2026-05-07 15:45 | 60.22747 | 5.23958 | 3986 ft | 169 kts | 170° |
| 2026-05-07 15:45 | 60.21605 | 5.24316 | 4765 ft | 168 kts | 170° |
| 2026-05-07 15:45 | 60.20461 | 5.24680 | 5550 ft | 168 kts | 170° |
| 2026-05-07 15:45 | 60.19330 | 5.25046 | 6333 ft | 167 kts | 171° |
| 2026-05-07 15:46 | 60.17087 | 5.25775 | 7853 ft | 167 kts | 172° |
| 2026-05-07 15:46 | 60.15955 | 5.26145 | 8580 ft | 168 kts | 172° |
| 2026-05-07 15:46 | 60.14802 | 5.26523 | 9309 ft | 170 kts | 173° |
| 2026-05-07 15:47 | 60.13657 | 5.26898 | 10020 ft | 171 kts | 174° |
| 2026-05-07 15:47 | 60.12452 | 5.27291 | 10571 ft | 182 kts | 174° |
| 2026-05-07 15:47 | 60.11178 | 5.27703 | 11179 ft | 191 kts | 176° |
| 2026-05-07 15:47 | 60.09909 | 5.27304 | 11769 ft | 189 kts | 215° |
| 2026-05-07 15:48 | 60.09232 | 5.25132 | 12365 ft | 192 kts | 255° |
| 2026-05-07 15:48 | 60.08994 | 5.22525 | 13088 ft | 194 kts | 259° |
| 2026-05-07 15:48 | 60.08766 | 5.19871 | 13842 ft | 196 kts | 259° |
| 2026-05-07 15:48 | 60.08538 | 5.17195 | 14470 ft | 202 kts | 259° |
| 2026-05-07 15:49 | 60.08302 | 5.14369 | 14988 ft | 211 kts | 261° |
| 2026-05-07 15:49 | 60.08501 | 5.11473 | 15515 ft | 222 kts | 296° |
| 2026-05-07 15:49 | 60.09703 | 5.09476 | 16013 ft | 239 kts | 334° |
| 2026-05-07 15:49 | 60.11340 | 5.08627 | 16603 ft | 246 kts | 341° |
| 2026-05-07 15:50 | 60.13004 | 5.07891 | 17230 ft | 249 kts | 341° |
| 2026-05-07 15:50 | 60.14685 | 5.07138 | 17873 ft | 251 kts | 341° |
| 2026-05-07 15:50 | 60.16383 | 5.06367 | 18532 ft | 252 kts | 341° |
| 2026-05-07 15:50 | 60.18070 | 5.05590 | 19194 ft | 253 kts | 340° |
| 2026-05-07 15:51 | 60.19780 | 5.04795 | 19871 ft | 253 kts | 340° |
| 2026-05-07 15:51 | 60.21478 | 5.03999 | 20545 ft | 254 kts | 339° |
| 2026-05-07 15:51 | 60.23176 | 5.03198 | 21198 ft | 254 kts | 339° |
| 2026-05-07 15:51 | 60.24839 | 5.02156 | 21834 ft | 245 kts | 322° |
| 2026-05-07 15:52 | 60.25905 | 4.99813 | 22370 ft | 226 kts | 287° |
| 2026-05-07 15:52 | 60.25969 | 4.96747 | 22948 ft | 222 kts | 259° |
| 2026-05-07 15:52 | 60.25555 | 4.93782 | 23586 ft | 223 kts | 255° |
| 2026-05-07 15:52 | 60.25067 | 4.90777 | 23960 ft | 236 kts | 254° |
| 2026-05-07 15:53 | 60.24487 | 4.87509 | 24078 ft | 257 kts | 252° |
| 2026-05-07 15:53 | 60.23819 | 4.83994 | 24107 ft | 279 kts | 251° |
| 2026-05-07 15:53 | 60.23082 | 4.80288 | 24107 ft | 297 kts | 251° |
| 2026-05-07 15:53 | 60.22275 | 4.76354 | 24107 ft | 311 kts | 250° |
| 2026-05-07 15:54 | 60.21419 | 4.72260 | 24101 ft | 315 kts | 250° |
| 2026-05-07 15:54 | 60.20541 | 4.68372 | 24076 ft | 301 kts | 244° |
| 2026-05-07 15:54 | 60.19217 | 4.65160 | 24103 ft | 300 kts | 229° |
| 2026-05-07 15:54 | 60.17688 | 4.62301 | 24092 ft | 297 kts | 229° |
| 2026-05-07 15:55 | 60.16187 | 4.59527 | 24086 ft | 294 kts | 229° |
| 2026-05-07 15:55 | 60.14707 | 4.56799 | 24081 ft | 291 kts | 229° |
| 2026-05-07 15:55 | 60.13211 | 4.54044 | 24082 ft | 288 kts | 229° |
| 2026-05-07 15:55 | 60.11765 | 4.51381 | 24090 ft | 286 kts | 229° |
| 2026-05-07 15:56 | 60.10300 | 4.48687 | 24088 ft | 284 kts | 229° |
| 2026-05-07 15:56 | 60.08863 | 4.46046 | 24084 ft | 282 kts | 229° |
| 2026-05-07 15:56 | 60.07411 | 4.43378 | 24084 ft | 281 kts | 229° |
| 2026-05-07 15:56 | 60.05971 | 4.40736 | 24088 ft | 280 kts | 229° |
| 2026-05-07 15:57 | 60.04538 | 4.38110 | 24087 ft | 279 kts | 229° |
| 2026-05-07 15:57 | 60.03125 | 4.35523 | 24088 ft | 279 kts | 229° |
| 2026-05-07 15:57 | 60.01687 | 4.32888 | 24097 ft | 283 kts | 228° |
| 2026-05-07 15:57 | 60.00223 | 4.30209 | 24094 ft | 286 kts | 228° |
| 2026-05-07 15:58 | 59.98766 | 4.27547 | 24095 ft | 288 kts | 228° |
| 2026-05-07 15:58 | 59.97268 | 4.24816 | 24089 ft | 291 kts | 227° |
| 2026-05-07 15:58 | 59.95774 | 4.22098 | 24091 ft | 293 kts | 227° |
| 2026-05-07 15:58 | 59.94279 | 4.19382 | 24095 ft | 294 kts | 228° |
| 2026-05-07 15:59 | 59.92768 | 4.16639 | 24085 ft | 296 kts | 227° |
| 2026-05-07 15:59 | 59.91245 | 4.13881 | 24088 ft | 297 kts | 227° |
| 2026-05-07 15:59 | 59.89718 | 4.11118 | 24090 ft | 298 kts | 227° |
| 2026-05-07 15:59 | 59.88171 | 4.08312 | 24090 ft | 298 kts | 229° |
| 2026-05-07 16:00 | 59.86856 | 4.05240 | 24098 ft | 293 kts | 239° |
| 2026-05-07 16:00 | 59.85709 | 4.01893 | 24092 ft | 294 kts | 240° |
| 2026-05-07 16:00 | 59.84571 | 3.98540 | 24087 ft | 294 kts | 240° |
| 2026-05-07 16:00 | 59.83430 | 3.95189 | 24088 ft | 294 kts | 240° |
| 2026-05-07 16:01 | 59.82276 | 3.91811 | 24085 ft | 295 kts | 240° |
| 2026-05-07 16:01 | 59.81123 | 3.88451 | 24085 ft | 295 kts | 239° |
| 2026-05-07 16:01 | 59.79972 | 3.85103 | 24090 ft | 295 kts | 239° |
| 2026-05-07 16:01 | 59.78807 | 3.81726 | 24083 ft | 295 kts | 239° |
| 2026-05-07 16:02 | 59.77665 | 3.78418 | 24086 ft | 295 kts | 239° |
| 2026-05-07 16:02 | 59.76499 | 3.75053 | 24089 ft | 295 kts | 239° |
| 2026-05-07 16:02 | 59.75346 | 3.71728 | 24084 ft | 295 kts | 239° |
| 2026-05-07 16:02 | 59.74178 | 3.68367 | 24088 ft | 296 kts | 239° |
| 2026-05-07 16:03 | 59.73024 | 3.65052 | 24088 ft | 296 kts | 239° |
| 2026-05-07 16:03 | 59.71853 | 3.61694 | 24085 ft | 296 kts | 239° |
| 2026-05-07 16:03 | 59.70682 | 3.58340 | 24085 ft | 296 kts | 239° |
| 2026-05-07 16:03 | 59.69508 | 3.54984 | 24082 ft | 296 kts | 239° |
| 2026-05-07 16:04 | 59.68346 | 3.51665 | 24085 ft | 296 kts | 239° |
| 2026-05-07 16:04 | 59.67179 | 3.48338 | 24078 ft | 296 kts | 239° |
| 2026-05-07 16:04 | 59.66008 | 3.45004 | 24081 ft | 296 kts | 239° |
| 2026-05-07 16:04 | 59.64820 | 3.41628 | 24086 ft | 296 kts | 239° |
| 2026-05-07 16:05 | 59.63656 | 3.38321 | 24077 ft | 296 kts | 239° |
| 2026-05-07 16:05 | 59.62472 | 3.34968 | 24085 ft | 296 kts | 238° |
| 2026-05-07 16:05 | 59.61289 | 3.31619 | 24080 ft | 297 kts | 238° |
| 2026-05-07 16:05 | 59.60119 | 3.28313 | 24081 ft | 297 kts | 238° |
| 2026-05-07 16:06 | 59.58936 | 3.24973 | 24084 ft | 297 kts | 238° |
| 2026-05-07 16:06 | 59.57747 | 3.21622 | 24084 ft | 297 kts | 238° |
| 2026-05-07 16:06 | 59.56565 | 3.18297 | 24085 ft | 298 kts | 238° |
| 2026-05-07 16:06 | 59.55392 | 3.14997 | 24083 ft | 298 kts | 238° |
| 2026-05-07 16:07 | 59.54199 | 3.11650 | 24080 ft | 298 kts | 238° |
| 2026-05-07 16:07 | 59.53008 | 3.08313 | 24079 ft | 298 kts | 238° |
| 2026-05-07 16:07 | 59.51814 | 3.04972 | 24072 ft | 298 kts | 238° |
| 2026-05-07 16:07 | 59.50632 | 3.01669 | 24082 ft | 298 kts | 238° |
| 2026-05-07 16:08 | 59.49439 | 2.98339 | 24081 ft | 298 kts | 238° |
| 2026-05-07 16:08 | 59.48258 | 2.95047 | 24072 ft | 298 kts | 238° |
| 2026-05-07 16:08 | 59.47061 | 2.91718 | 24075 ft | 298 kts | 238° |
| 2026-05-07 16:08 | 59.45865 | 2.88394 | 24071 ft | 298 kts | 238° |
| 2026-05-07 16:09 | 59.44673 | 2.85086 | 24080 ft | 298 kts | 238° |
| 2026-05-07 16:09 | 59.43483 | 2.81790 | 24081 ft | 298 kts | 238° |
| 2026-05-07 16:09 | 59.42283 | 2.78468 | 24076 ft | 298 kts | 238° |
| 2026-05-07 16:09 | 59.41094 | 2.75182 | 24069 ft | 298 kts | 238° |
| 2026-05-07 16:10 | 59.39896 | 2.71879 | 24071 ft | 298 kts | 238° |
| 2026-05-07 16:10 | 59.38710 | 2.68610 | 24070 ft | 298 kts | 238° |
| 2026-05-07 16:10 | 59.37505 | 2.65294 | 24078 ft | 298 kts | 238° |
| 2026-05-07 16:10 | 59.36303 | 2.61990 | 24069 ft | 298 kts | 238° |
| 2026-05-07 16:11 | 59.35104 | 2.58703 | 24070 ft | 298 kts | 238° |
| 2026-05-07 16:11 | 59.33904 | 2.55412 | 24066 ft | 298 kts | 238° |
| 2026-05-07 16:11 | 59.32709 | 2.52145 | 24070 ft | 298 kts | 238° |
| 2026-05-07 16:11 | 59.31499 | 2.48836 | 24065 ft | 298 kts | 238° |
| 2026-05-07 16:12 | 59.30294 | 2.45549 | 24065 ft | 298 kts | 238° |
| 2026-05-07 16:12 | 59.29100 | 2.42297 | 24064 ft | 298 kts | 238° |
| 2026-05-07 16:12 | 59.27887 | 2.38995 | 24066 ft | 298 kts | 238° |
| 2026-05-07 16:12 | 59.26684 | 2.35726 | 24057 ft | 298 kts | 237° |
| 2026-05-07 16:13 | 59.25470 | 2.32432 | 24064 ft | 298 kts | 237° |
| 2026-05-07 16:13 | 59.24264 | 2.29163 | 24054 ft | 298 kts | 237° |
| 2026-05-07 16:13 | 59.23054 | 2.25891 | 24058 ft | 298 kts | 237° |
| 2026-05-07 16:13 | 59.21855 | 2.22649 | 24066 ft | 298 kts | 237° |
| 2026-05-07 16:14 | 59.20638 | 2.19365 | 24049 ft | 298 kts | 237° |
| 2026-05-07 16:14 | 59.19420 | 2.16083 | 24060 ft | 298 kts | 237° |
| 2026-05-07 16:14 | 59.18212 | 2.12833 | 24052 ft | 299 kts | 237° |
| 2026-05-07 16:14 | 59.16990 | 2.09548 | 24056 ft | 299 kts | 237° |
| 2026-05-07 16:15 | 59.15777 | 2.06294 | 24052 ft | 299 kts | 237° |
| 2026-05-07 16:15 | 59.14554 | 2.03015 | 24049 ft | 299 kts | 237° |
| 2026-05-07 16:15 | 59.13332 | 1.99746 | 24047 ft | 299 kts | 237° |
| 2026-05-07 16:15 | 59.12120 | 1.96507 | 24045 ft | 299 kts | 236° |
| 2026-05-07 16:16 | 59.10909 | 1.93274 | 24047 ft | 299 kts | 237° |
| 2026-05-07 16:16 | 59.09679 | 1.89997 | 24046 ft | 299 kts | 236° |
| 2026-05-07 16:16 | 59.08465 | 1.86766 | 24047 ft | 298 kts | 236° |
| 2026-05-07 16:16 | 59.07245 | 1.83525 | 24049 ft | 298 kts | 236° |
| 2026-05-07 16:17 | 59.06013 | 1.80253 | 24045 ft | 298 kts | 236° |
| 2026-05-07 16:17 | 59.04788 | 1.77006 | 24040 ft | 298 kts | 236° |
| 2026-05-07 16:17 | 59.03576 | 1.73798 | 24050 ft | 298 kts | 236° |
| 2026-05-07 16:17 | 59.02334 | 1.70593 | 24043 ft | 298 kts | 235° |
| 2026-05-07 16:18 | 59.01067 | 1.67403 | 24038 ft | 298 kts | 235° |
| 2026-05-07 16:18 | 58.99794 | 1.64207 | 24040 ft | 299 kts | 234° |
| 2026-05-07 16:18 | 58.98536 | 1.61050 | 24040 ft | 299 kts | 235° |
| 2026-05-07 16:18 | 58.97270 | 1.57874 | 24039 ft | 299 kts | 235° |
| 2026-05-07 16:19 | 58.95996 | 1.54679 | 24035 ft | 299 kts | 235° |
| 2026-05-07 16:19 | 58.94730 | 1.51507 | 24034 ft | 299 kts | 235° |
| 2026-05-07 16:19 | 58.93457 | 1.48322 | 24032 ft | 299 kts | 235° |
| 2026-05-07 16:19 | 58.92196 | 1.45170 | 24033 ft | 299 kts | 235° |
| 2026-05-07 16:20 | 58.90923 | 1.41990 | 24037 ft | 299 kts | 235° |
| 2026-05-07 16:20 | 58.89651 | 1.38818 | 24025 ft | 299 kts | 234° |
| 2026-05-07 16:20 | 58.88381 | 1.35655 | 24024 ft | 299 kts | 234° |
| 2026-05-07 16:20 | 58.87122 | 1.32521 | 24024 ft | 299 kts | 234° |
| 2026-05-07 16:21 | 58.85841 | 1.29338 | 24025 ft | 299 kts | 234° |
| 2026-05-07 16:21 | 58.84568 | 1.26180 | 24024 ft | 300 kts | 234° |
| 2026-05-07 16:21 | 58.83292 | 1.23017 | 24019 ft | 300 kts | 234° |
| 2026-05-07 16:21 | 58.82009 | 1.19841 | 24015 ft | 300 kts | 234° |
| 2026-05-07 16:22 | 58.80732 | 1.16684 | 24014 ft | 300 kts | 234° |
| 2026-05-07 16:22 | 58.79451 | 1.13523 | 24018 ft | 300 kts | 234° |
| 2026-05-07 16:22 | 58.78168 | 1.10361 | 24019 ft | 300 kts | 234° |
| 2026-05-07 16:22 | 58.76897 | 1.07233 | 24020 ft | 300 kts | 234° |
| 2026-05-07 16:23 | 58.75603 | 1.04051 | 24019 ft | 300 kts | 234° |
| 2026-05-07 16:23 | 58.74325 | 1.00913 | 24016 ft | 299 kts | 234° |
| 2026-05-07 16:23 | 58.73047 | 0.97779 | 24013 ft | 300 kts | 234° |
| 2026-05-07 16:23 | 58.71755 | 0.94613 | 24011 ft | 300 kts | 234° |
| 2026-05-07 16:24 | 58.70483 | 0.91503 | 24012 ft | 299 kts | 233° |
| 2026-05-07 16:24 | 58.69192 | 0.88352 | 24014 ft | 299 kts | 234° |
| 2026-05-07 16:24 | 58.67911 | 0.85227 | 24015 ft | 299 kts | 234° |
| 2026-05-07 16:24 | 58.66627 | 0.82101 | 24017 ft | 299 kts | 234° |
| 2026-05-07 16:25 | 58.65343 | 0.78976 | 24008 ft | 299 kts | 233° |
| 2026-05-07 16:25 | 58.64061 | 0.75861 | 24010 ft | 299 kts | 233° |
| 2026-05-07 16:25 | 58.62761 | 0.72708 | 24011 ft | 299 kts | 233° |
| 2026-05-07 16:25 | 58.61478 | 0.69599 | 24014 ft | 300 kts | 233° |
| 2026-05-07 16:26 | 58.60189 | 0.66479 | 24009 ft | 300 kts | 233° |
| 2026-05-07 16:26 | 58.58902 | 0.63371 | 24012 ft | 300 kts | 233° |
| 2026-05-07 16:26 | 58.57601 | 0.60230 | 24015 ft | 300 kts | 233° |
| 2026-05-07 16:26 | 58.56744 | 0.58164 | 24014 ft | 300 kts | 233° |
| 2026-05-07 16:27 | 58.55006 | 0.53982 | 24011 ft | 300 kts | 233° |
| 2026-05-07 16:27 | 58.53714 | 0.50874 | 24010 ft | 301 kts | 233° |
| 2026-05-07 16:27 | 58.52419 | 0.47767 | 24002 ft | 301 kts | 233° |
| 2026-05-07 16:27 | 58.51116 | 0.44642 | 24003 ft | 301 kts | 233° |
| 2026-05-07 16:28 | 58.49808 | 0.41511 | 24002 ft | 300 kts | 233° |
| 2026-05-07 16:28 | 58.48510 | 0.38408 | 24006 ft | 300 kts | 233° |
| 2026-05-07 16:28 | 58.47221 | 0.35331 | 24000 ft | 300 kts | 233° |
| 2026-05-07 16:28 | 58.45910 | 0.32204 | 24009 ft | 300 kts | 232° |
| 2026-05-07 16:29 | 58.44618 | 0.29126 | 24005 ft | 300 kts | 232° |
| 2026-05-07 16:29 | 58.43309 | 0.26011 | 24004 ft | 301 kts | 232° |
| 2026-05-07 16:29 | 58.41995 | 0.22892 | 24001 ft | 301 kts | 232° |
| 2026-05-07 16:29 | 58.40704 | 0.19827 | 23997 ft | 301 kts | 232° |
| 2026-05-07 16:30 | 58.39383 | 0.16699 | 23999 ft | 301 kts | 232° |
| 2026-05-07 16:30 | 58.38079 | 0.13614 | 23998 ft | 301 kts | 232° |
| 2026-05-07 16:30 | 58.36771 | 0.10522 | 23997 ft | 301 kts | 232° |
| 2026-05-07 16:30 | 58.35468 | 0.07448 | 24000 ft | 301 kts | 232° |
| 2026-05-07 16:31 | 58.34156 | 0.04355 | 23995 ft | 302 kts | 232° |
| 2026-05-07 16:31 | 58.32839 | 0.01254 | 23995 ft | 302 kts | 232° |
| 2026-05-07 16:31 | 58.31520 | -0.01844 | 23998 ft | 302 kts | 232° |
| 2026-05-07 16:31 | 58.30209 | -0.04922 | 23996 ft | 302 kts | 232° |
| 2026-05-07 16:32 | 58.28875 | -0.08050 | 23997 ft | 302 kts | 232° |
| 2026-05-07 16:32 | 58.27559 | -0.11132 | 23992 ft | 302 kts | 232° |
| 2026-05-07 16:32 | 58.26239 | -0.14218 | 23983 ft | 302 kts | 232° |
| 2026-05-07 16:32 | 58.24930 | -0.17275 | 23988 ft | 302 kts | 232° |
| 2026-05-07 16:33 | 58.23608 | -0.20358 | 23984 ft | 302 kts | 231° |
| 2026-05-07 16:33 | 58.22284 | -0.23442 | 23988 ft | 302 kts | 231° |
| 2026-05-07 16:33 | 58.20963 | -0.26516 | 23991 ft | 302 kts | 231° |
| 2026-05-07 16:33 | 58.19639 | -0.29591 | 23990 ft | 301 kts | 231° |
| 2026-05-07 16:34 | 58.18317 | -0.32657 | 23986 ft | 301 kts | 232° |
| 2026-05-07 16:34 | 58.16983 | -0.35749 | 23979 ft | 301 kts | 231° |
| 2026-05-07 16:34 | 58.15670 | -0.38788 | 23968 ft | 301 kts | 231° |
| 2026-05-07 16:34 | 58.14330 | -0.41884 | 23978 ft | 301 kts | 231° |
| 2026-05-07 16:35 | 58.13018 | -0.44912 | 23975 ft | 301 kts | 232° |
| 2026-05-07 16:35 | 58.11691 | -0.47970 | 23970 ft | 301 kts | 231° |
| 2026-05-07 16:35 | 58.10358 | -0.51039 | 23971 ft | 302 kts | 231° |
| 2026-05-07 16:35 | 58.09037 | -0.54075 | 23972 ft | 302 kts | 231° |
| 2026-05-07 16:36 | 58.07703 | -0.57139 | 23966 ft | 302 kts | 231° |
| 2026-05-07 16:36 | 58.06376 | -0.60184 | 23964 ft | 302 kts | 231° |
| 2026-05-07 16:36 | 58.05047 | -0.63226 | 23960 ft | 302 kts | 231° |
| 2026-05-07 16:36 | 58.03704 | -0.66299 | 23964 ft | 302 kts | 230° |
| 2026-05-07 16:37 | 58.02383 | -0.69316 | 23960 ft | 302 kts | 230° |
| 2026-05-07 16:37 | 58.01045 | -0.72368 | 23956 ft | 302 kts | 230° |
| 2026-05-07 16:37 | 57.99701 | -0.75431 | 23956 ft | 302 kts | 230° |
| 2026-05-07 16:37 | 57.98370 | -0.78460 | 23960 ft | 302 kts | 230° |
| 2026-05-07 16:38 | 57.97035 | -0.81494 | 23959 ft | 302 kts | 230° |
| 2026-05-07 16:38 | 57.95692 | -0.84540 | 23770 ft | 308 kts | 230° |
| 2026-05-07 16:38 | 57.94313 | -0.87668 | 23411 ft | 318 kts | 230° |
| 2026-05-07 16:38 | 57.92887 | -0.90898 | 22980 ft | 327 kts | 230° |
| 2026-05-07 16:39 | 57.91405 | -0.94252 | 22506 ft | 330 kts | 230° |
| 2026-05-07 16:39 | 57.89964 | -0.97493 | 22046 ft | 321 kts | 230° |
| 2026-05-07 16:39 | 57.88567 | -1.00631 | 21596 ft | 314 kts | 230° |
| 2026-05-07 16:39 | 57.87190 | -1.03724 | 21159 ft | 308 kts | 230° |
| 2026-05-07 16:40 | 57.85837 | -1.06760 | 20731 ft | 302 kts | 230° |
| 2026-05-07 16:40 | 57.84496 | -1.09766 | 20311 ft | 297 kts | 230° |
| 2026-05-07 16:40 | 57.83190 | -1.12693 | 19898 ft | 293 kts | 229° |
| 2026-05-07 16:40 | 57.81894 | -1.15594 | 19487 ft | 290 kts | 229° |
| 2026-05-07 16:41 | 57.80599 | -1.18488 | 19071 ft | 286 kts | 229° |
| 2026-05-07 16:41 | 57.79334 | -1.21314 | 18673 ft | 283 kts | 229° |
| 2026-05-07 16:41 | 57.78077 | -1.24116 | 18279 ft | 280 kts | 229° |
| 2026-05-07 16:41 | 57.76841 | -1.26871 | 17889 ft | 278 kts | 229° |
| 2026-05-07 16:42 | 57.75609 | -1.29613 | 17496 ft | 275 kts | 229° |
| 2026-05-07 16:42 | 57.74380 | -1.32345 | 17111 ft | 273 kts | 229° |
| 2026-05-07 16:42 | 57.73162 | -1.35051 | 16723 ft | 271 kts | 229° |
| 2026-05-07 16:42 | 57.71951 | -1.37736 | 16341 ft | 270 kts | 229° |
| 2026-05-07 16:43 | 57.70753 | -1.40392 | 15964 ft | 268 kts | 230° |
| 2026-05-07 16:43 | 57.69567 | -1.43016 | 15590 ft | 266 kts | 230° |
| 2026-05-07 16:43 | 57.68368 | -1.45668 | 15212 ft | 265 kts | 230° |
| 2026-05-07 16:43 | 57.67187 | -1.48276 | 14836 ft | 263 kts | 230° |
| 2026-05-07 16:44 | 57.66014 | -1.50865 | 14466 ft | 262 kts | 230° |
| 2026-05-07 16:44 | 57.64844 | -1.53442 | 14098 ft | 260 kts | 230° |
| 2026-05-07 16:44 | 57.63691 | -1.55980 | 13737 ft | 259 kts | 230° |
| 2026-05-07 16:44 | 57.62531 | -1.58532 | 13374 ft | 258 kts | 229° |
| 2026-05-07 16:45 | 57.61379 | -1.61065 | 13011 ft | 257 kts | 230° |
| 2026-05-07 16:45 | 57.60229 | -1.63586 | 12651 ft | 256 kts | 230° |
| 2026-05-07 16:45 | 57.59073 | -1.66122 | 12288 ft | 255 kts | 229° |
| 2026-05-07 16:45 | 57.57932 | -1.68619 | 11927 ft | 254 kts | 229° |
| 2026-05-07 16:46 | 57.56802 | -1.71092 | 11570 ft | 253 kts | 229° |
| 2026-05-07 16:46 | 57.55661 | -1.73586 | 11209 ft | 253 kts | 229° |
| 2026-05-07 16:46 | 57.54518 | -1.76080 | 10850 ft | 252 kts | 228° |
| 2026-05-07 16:46 | 57.53393 | -1.78534 | 10499 ft | 251 kts | 228° |
| 2026-05-07 16:47 | 57.52266 | -1.80991 | 10141 ft | 250 kts | 228° |
| 2026-05-07 16:47 | 57.51130 | -1.83462 | 9780 ft | 249 kts | 228° |
| 2026-05-07 16:47 | 57.50016 | -1.85883 | 9429 ft | 249 kts | 228° |
| 2026-05-07 16:47 | 57.48905 | -1.88296 | 9081 ft | 247 kts | 228° |
| 2026-05-07 16:48 | 57.47783 | -1.90731 | 8731 ft | 246 kts | 228° |
| 2026-05-07 16:48 | 57.46670 | -1.93143 | 8378 ft | 245 kts | 228° |
| 2026-05-07 16:48 | 57.45571 | -1.95523 | 8036 ft | 244 kts | 228° |
| 2026-05-07 16:48 | 57.44474 | -1.97896 | 7691 ft | 242 kts | 228° |
| 2026-05-07 16:49 | 57.43377 | -2.00265 | 7342 ft | 241 kts | 228° |
| 2026-05-07 16:49 | 57.42300 | -2.02589 | 6996 ft | 239 kts | 228° |
| 2026-05-07 16:49 | 57.41222 | -2.04915 | 6664 ft | 238 kts | 228° |
| 2026-05-07 16:49 | 57.40137 | -2.07253 | 6321 ft | 236 kts | 227° |
| 2026-05-07 16:50 | 57.39073 | -2.09542 | 6004 ft | 234 kts | 227° |
| 2026-05-07 16:50 | 57.38018 | -2.11817 | 5693 ft | 231 kts | 227° |
| 2026-05-07 16:50 | 57.36973 | -2.14067 | 5381 ft | 230 kts | 227° |
| 2026-05-07 16:50 | 57.35923 | -2.16318 | 5052 ft | 229 kts | 227° |
| 2026-05-07 16:51 | 57.34977 | -2.18718 | 4476 ft | 239 kts | 243° |
| 2026-05-07 16:51 | 57.34828 | -2.21755 | 3801 ft | 252 kts | 278° |
| 2026-05-07 16:51 | 57.35727 | -2.24583 | 3090 ft | 267 kts | 313° |
| 2026-05-07 16:51 | 57.37408 | -2.26058 | 2487 ft | 272 kts | 351° |
| 2026-05-07 16:52 | 57.39201 | -2.26197 | 2432 ft | 247 kts | 351° |
| 2026-05-07 16:52 | 57.40657 | -2.27350 | 2371 ft | 213 kts | 314° |
| 2026-05-07 16:52 | 57.41373 | -2.29400 | 2293 ft | 172 kts | 274° |
| 2026-05-07 16:52 | 57.41207 | -2.31347 | 2271 ft | 147 kts | 230° |
| 2026-05-07 16:53 | 57.40405 | -2.32380 | 2265 ft | 140 kts | 194° |
| 2026-05-07 16:53 | 57.39452 | -2.32763 | 2276 ft | 140 kts | 192° |
| 2026-05-07 16:53 | 57.38474 | -2.32696 | 2318 ft | 142 kts | 170° |
| 2026-05-07 16:53 | 57.37541 | -2.32275 | 2547 ft | 136 kts | 171° |
| 2026-05-07 16:54 | 57.36642 | -2.31868 | 2747 ft | 132 kts | 169° |
| 2026-05-07 16:54 | 57.35748 | -2.31348 | 2812 ft | 140 kts | 165° |
| 2026-05-07 16:54 | 57.34793 | -2.30675 | 2723 ft | 154 kts | 163° |
| 2026-05-07 16:54 | 57.33781 | -2.29912 | 2730 ft | 155 kts | 162° |
| 2026-05-07 16:55 | 57.32809 | -2.29171 | 2724 ft | 150 kts | 162° |
| 2026-05-07 16:55 | 57.31834 | -2.28441 | 2564 ft | 154 kts | 162° |
| 2026-05-07 16:55 | 57.30806 | -2.27684 | 2351 ft | 160 kts | 162° |
| 2026-05-07 16:55 | 57.29780 | -2.26918 | 2123 ft | 158 kts | 161° |
| 2026-05-07 16:56 | 57.28788 | -2.26162 | 1899 ft | 150 kts | 161° |
| 2026-05-07 16:56 | 57.27849 | -2.25452 | 1673 ft | 143 kts | 162° |
| 2026-05-07 16:56 | 57.26095 | -2.24164 | 1342 ft | 136 kts | 162° |
| 2026-05-07 16:57 | 57.25216 | -2.23523 | 1148 ft | 138 kts | 161° |
| 2026-05-07 16:57 | 57.24379 | -2.22889 | 928 ft | 121 kts | 160° |
| 2026-05-07 16:57 | 57.23664 | -2.22333 | 640 ft | 107 kts | 158° |
| 2026-05-07 16:57 | 57.22933 | -2.21721 | 615 ft | 114 kts | 161° |
| 2026-05-07 16:58 | 57.22167 | -2.21217 | 487 ft | 121 kts | 161° |
| 2026-05-07 16:58 | 57.21354 | -2.20641 | 342 ft | 130 kts | 160° |
| 2026-05-07 16:58 | 57.20529 | -2.20026 | 207 ft | 115 kts | 159° |
| 2026-05-07 16:58 | 57.20035 | -2.19663 | 209 ft | 29 kts | 159° |
| 2026-05-07 16:59 | 57.19884 | -2.19550 | 210 ft | 18 kts | 158° |
| 2026-05-07 16:59 | 57.19764 | -2.19462 | 212 ft | 17 kts | 158° |
| 2026-05-07 16:59 | 57.19624 | -2.19359 | 216 ft | 20 kts | 158° |
| 2026-05-07 16:59 | 57.19522 | -2.19285 | 218 ft | 11 kts | 159° |
| 2026-05-07 17:00 | 57.19463 | -2.19244 | 220 ft | 12 kts | 170° |
| 2026-05-07 17:00 | 57.19430 | -2.19370 | 226 ft | 12 kts | 315° |
| 2026-05-07 17:00 | 57.19497 | -2.19476 | 226 ft | 12 kts | 318° |
| 2026-05-07 17:00 | 57.19569 | -2.19592 | 224 ft | 14 kts | 319° |
| 2026-05-07 17:01 | 57.19659 | -2.19709 | 222 ft | 16 kts | 338° |
| 2026-05-07 17:01 | 57.19774 | -2.19793 | 219 ft | 18 kts | 339° |
| 2026-05-07 17:01 | 57.19881 | -2.19888 | 218 ft | 13 kts | 319° |
| 2026-05-07 17:01 | 57.19942 | -2.19997 | 218 ft | 10 kts | 316° |
| 2026-05-07 17:02 | 57.19951 | -2.20070 | 219 ft | 5 kts | 228° |
| 2026-05-07 17:02 | 57.19933 | -2.20105 | 221 ft | 3 kts | 226° |
| 2026-05-07 17:02 | 57.19922 | -2.20126 | 222 ft | 0 kts | 226° |
| 2026-05-07 17:05 | 57.19957 | -2.20168 | 221 ft | 0 kts | 248° |
| 2026-05-07 17:14 | 57.19964 | -2.20137 | 220 ft | 9 kts | 241° |
| 2026-05-07 17:14 | 57.20068 | -2.20128 | 218 ft | 17 kts | 158° |
| 2026-05-07 17:14 | 57.20156 | -2.20191 | 218 ft | 15 kts | 159° |
| 2026-05-07 17:14 | 57.20264 | -2.20273 | 219 ft | 15 kts | 157° |
| 2026-05-07 17:15 | 57.20372 | -2.20351 | 220 ft | 20 kts | 157° |
| 2026-05-07 17:15 | 57.20488 | -2.20360 | 218 ft | 21 kts | 182° |
| 2026-05-07 17:15 | 57.20634 | -2.20431 | 220 ft | 23 kts | 158° |
| 2026-05-07 17:15 | 57.20779 | -2.20538 | 223 ft | 22 kts | 159° |
| 2026-05-07 17:16 | 57.20864 | -2.20511 | 220 ft | 13 kts | 210° |
| 2026-05-07 17:16 | 57.20922 | -2.20382 | 212 ft | 12 kts | 253° |
| 2026-05-07 17:16 | 57.20958 | -2.20347 | 211 ft | 1 kts | 147° |